KBNO

Burns Municipal Airport

Burns, Oregon, USA
METAR KBNO 171553Z AUTO 00000KT 10SM CLR 18/07 A3023 RMK AO2 SLP197 T01830067
Observed Flight Rules
Aug-17 @ 15:53 UTC (58 minutes ago) Visual Flight Rules
Visibility Clouds
10 miles
  • Clear skies
Temperatures Readings
Current 18°C / 64°F
Dewpoint 7°C / 45°F
Humidity 49%
Altimeter 30.23" Hg
Pressure 1019.7 hPa
Elevation 1264
METAR KBNO 171553Z AUTO 00000KT 10SM CLR 18/07 A3023 RMK AO2 SLP197 T01830067
Observed Flight Rules
Aug-17 @ 15:53 UTC
(58 minutes ago)
VFR
Clouds
  • Clear skies
Temperature Dewpoint
18°C / 64°F 7°C / 45°F
Humidity Altimeter Pressure
49% 30.23" Hg 1019.7 hPa